createdAt,value
2019-01-23T00:00:47.244Z,67.93
2019-01-23T00:03:18.920Z,56.70
2019-01-23T00:05:50.647Z,59.03
2019-01-23T00:08:22.368Z,59.17
2019-01-23T00:10:54.042Z,62.33
2019-01-23T00:13:26.170Z,63.53
2019-01-23T00:15:58.190Z,65.07
2019-01-23T00:18:29.910Z,65.57
2019-01-23T00:21:01.586Z,62.70
2019-01-23T00:23:33.301Z,67.77
2019-01-23T00:26:04.985Z,63.33
2019-01-23T00:28:42.204Z,64.87
2019-01-23T00:31:10.110Z,60.20
2019-01-23T00:33:41.812Z,57.60
2019-01-23T00:36:13.498Z,59.30
2019-01-23T00:38:45.243Z,62.37
2019-01-23T00:41:16.983Z,65.37
2019-01-23T00:43:48.661Z,60.30
2019-01-23T00:46:20.386Z,58.43
2019-01-23T00:48:52.371Z,64.97
2019-01-23T00:51:24.053Z,62.63
2019-01-23T00:53:56.428Z,69.50
2019-01-23T00:56:28.144Z,64.67
2019-01-23T00:58:59.870Z,65.70
2019-01-23T01:01:31.609Z,62.27
2019-01-23T01:04:03.327Z,68.60
2019-01-23T01:06:35.052Z,64.23
2019-01-23T01:09:09.367Z,58.70
2019-01-23T01:11:41.076Z,70.20
2019-01-23T01:14:12.766Z,64.57
2019-01-23T01:16:44.521Z,65.53
2019-01-23T01:19:16.188Z,69.17
2019-01-23T01:21:47.882Z,63.37
2019-01-23T01:24:19.627Z,62.87
2019-01-23T01:26:51.305Z,59.13
2019-01-23T01:29:23.119Z,64.23
2019-01-23T01:31:54.795Z,64.97
2019-01-23T01:34:26.523Z,66.57
2019-01-23T01:36:58.243Z,58.40
2019-01-23T01:39:30.099Z,67.50
2019-01-23T01:42:01.881Z,70.60
2019-01-23T01:44:33.619Z,61.77
2019-01-23T01:47:05.349Z,67.30
2019-01-23T01:49:37.023Z,62.93
2019-01-23T01:52:09.134Z,61.60
2019-01-23T01:54:41.197Z,61.40
2019-01-23T01:57:13.399Z,67.50
2019-01-23T01:59:45.185Z,63.20
2019-01-23T02:02:16.860Z,61.30
2019-01-23T02:04:48.608Z,60.83
2019-01-23T02:07:20.309Z,63.00
2019-01-23T02:09:52.057Z,64.97
2019-01-23T02:12:23.763Z,60.43
2019-01-23T02:14:55.466Z,70.97
2019-01-23T02:17:27.191Z,65.33
2019-01-23T02:19:58.904Z,61.80
2019-01-23T02:22:30.632Z,67.07
2019-01-23T02:25:02.384Z,68.33
2019-01-23T02:27:34.383Z,65.40
2019-01-23T02:30:11.273Z,66.60
2019-01-23T02:32:42.956Z,64.67
2019-01-23T02:35:14.656Z,67.50
2019-01-23T02:37:46.357Z,63.57
2019-01-23T02:40:20.598Z,72.40
2019-01-23T02:42:52.304Z,66.73
2019-01-23T02:45:24.852Z,66.73
2019-01-23T02:47:56.550Z,73.50
2019-01-23T02:50:28.241Z,67.17
2019-01-23T02:52:59.966Z,71.53
2019-01-23T02:55:31.659Z,69.57
2019-01-23T02:58:03.399Z,64.70
2019-01-23T03:00:35.400Z,67.63
2019-01-23T03:03:07.132Z,71.30
2019-01-23T03:05:38.843Z,68.03
2019-01-23T03:08:10.630Z,68.33
2019-01-23T03:10:42.353Z,69.07
2019-01-23T03:13:14.070Z,66.03
2019-01-23T03:15:45.746Z,76.30
2019-01-23T03:18:17.493Z,77.60
2019-01-23T03:20:49.169Z,74.73
2019-01-23T03:23:20.913Z,83.80
2019-01-23T03:25:52.617Z,78.30
2019-01-23T03:28:24.351Z,75.13
2019-01-23T03:30:56.067Z,70.57
2019-01-23T03:33:27.823Z,88.60
2019-01-23T03:35:59.543Z,74.87
2019-01-23T03:38:31.245Z,87.13
2019-01-23T03:41:21.184Z,93.00
2019-01-23T03:43:52.925Z,83.67
2019-01-23T03:46:24.600Z,90.10
2019-01-23T03:48:56.351Z,93.00
2019-01-23T03:51:28.047Z,92.27
2019-01-23T03:53:59.731Z,98.73
2019-01-23T03:56:31.417Z,100.93
2019-01-23T03:59:03.151Z,95.73
2019-01-23T04:01:34.873Z,114.43
2019-01-23T04:04:06.586Z,116.77
2019-01-23T04:06:38.278Z,101.47
2019-01-23T04:09:09.986Z,114.83
2019-01-23T04:11:41.737Z,109.10
2019-01-23T04:14:13.423Z,110.03
2019-01-23T04:16:45.402Z,121.33
2019-01-23T04:19:17.094Z,122.73
2019-01-23T04:21:49.070Z,128.67
2019-01-23T04:24:20.762Z,125.13
2019-01-23T04:26:52.466Z,121.13
2019-01-23T04:29:24.185Z,122.97
2019-01-23T04:31:55.891Z,124.23
2019-01-23T04:34:27.591Z,132.77
2019-01-23T04:36:59.297Z,120.83
2019-01-23T04:39:30.987Z,123.57
2019-01-23T04:42:02.682Z,129.23
2019-01-23T04:44:34.742Z,124.20
2019-01-23T04:47:06.465Z,145.37
2019-01-23T04:49:38.163Z,128.47
2019-01-23T04:52:11.499Z,125.43
2019-01-23T04:54:43.212Z,115.37
2019-01-23T04:57:14.903Z,128.07
2019-01-23T04:59:47.072Z,122.80
2019-01-23T05:02:18.996Z,124.93
2019-01-23T05:04:50.699Z,116.57
2019-01-23T05:07:22.763Z,127.67
2019-01-23T05:09:54.810Z,123.20
2019-01-23T05:12:26.492Z,124.27
2019-01-23T05:14:58.215Z,125.97
2019-01-23T05:17:30.185Z,128.00
2019-01-23T05:20:01.884Z,126.43
2019-01-23T05:22:33.904Z,120.57
2019-01-23T05:25:07.413Z,131.13
2019-01-23T05:27:39.855Z,133.47
2019-01-23T05:30:21.121Z,130.53
2019-01-23T05:32:52.821Z,132.30
2019-01-23T05:35:24.511Z,130.40
2019-01-23T05:37:56.225Z,124.53
2019-01-23T05:40:27.914Z,124.23
2019-01-23T05:43:00.063Z,121.93
2019-01-23T05:45:31.756Z,133.90
2019-01-23T05:48:03.529Z,126.63
2019-01-23T05:50:35.230Z,125.17
2019-01-23T05:53:06.925Z,116.27
2019-01-23T05:55:38.648Z,125.30
2019-01-23T05:58:10.349Z,126.60
2019-01-23T06:00:42.056Z,124.77
2019-01-23T06:03:13.835Z,129.80
2019-01-23T06:05:45.543Z,119.30
2019-01-23T06:08:17.234Z,128.00
2019-01-23T06:10:48.934Z,116.03
2019-01-23T06:13:20.670Z,130.87
2019-01-23T06:15:52.353Z,126.37
2019-01-23T06:18:24.375Z,128.30
2019-01-23T06:20:56.073Z,137.17
2019-01-23T06:23:27.830Z,119.83
2019-01-23T06:25:59.561Z,127.57
2019-01-23T06:28:31.255Z,119.90
2019-01-23T06:31:02.954Z,119.63
2019-01-23T06:33:34.658Z,120.50
2019-01-23T06:36:06.378Z,132.13
2019-01-23T06:38:38.456Z,130.13
2019-01-23T06:41:10.192Z,131.17
2019-01-23T06:43:41.892Z,141.77
2019-01-23T06:46:13.980Z,122.73
2019-01-23T06:48:45.669Z,127.27
2019-01-23T06:51:17.393Z,140.70
2019-01-23T06:53:49.092Z,113.60
2019-01-23T06:56:20.784Z,138.57
2019-01-23T06:58:52.492Z,127.70
2019-01-23T07:01:24.199Z,131.40
2019-01-23T07:03:55.903Z,125.03
2019-01-23T07:06:27.634Z,126.07
2019-01-23T07:08:59.354Z,131.93
2019-01-23T07:11:31.063Z,140.67
2019-01-23T07:14:02.751Z,121.90
2019-01-23T07:16:34.440Z,129.50
2019-01-23T07:19:06.301Z,125.33
2019-01-23T07:21:37.994Z,123.93
2019-01-23T07:24:09.709Z,135.77
2019-01-23T07:26:41.440Z,137.83
2019-01-23T07:29:13.173Z,140.87
2019-01-23T07:31:44.882Z,133.83
2019-01-23T07:34:16.638Z,124.37
2019-01-23T07:36:48.738Z,127.03
2019-01-23T07:39:20.436Z,126.70
2019-01-23T07:41:52.418Z,133.47
2019-01-23T07:44:24.124Z,126.20
2019-01-23T07:46:55.829Z,137.90
2019-01-23T07:49:27.523Z,136.87
2019-01-23T07:51:59.510Z,161.17
2019-01-23T07:54:31.243Z,135.50
2019-01-23T07:57:02.961Z,146.20
2019-01-23T07:59:34.694Z,143.70
2019-01-23T08:02:06.381Z,149.23
2019-01-23T08:04:38.085Z,151.90
2019-01-23T08:07:09.815Z,146.17
2019-01-23T08:09:42.450Z,141.47
2019-01-23T08:12:14.178Z,149.40
2019-01-23T08:14:46.201Z,150.57
2019-01-23T08:17:17.907Z,147.90
2019-01-23T08:19:49.667Z,149.30
2019-01-23T08:22:21.403Z,153.93
2019-01-23T08:24:53.087Z,161.77
2019-01-23T08:27:24.797Z,165.50
2019-01-23T08:29:56.577Z,150.60
2019-01-23T08:32:28.286Z,157.13
2019-01-23T08:34:59.991Z,154.10
2019-01-23T08:37:31.702Z,154.43
2019-01-23T08:40:05.565Z,163.37
2019-01-23T08:42:37.369Z,159.80
2019-01-23T08:45:11.891Z,159.23
2019-01-23T08:47:43.573Z,152.13
2019-01-23T08:50:25.105Z,164.17
2019-01-23T08:52:56.804Z,147.60
2019-01-23T08:55:28.513Z,153.20
2019-01-23T08:58:00.252Z,141.90
2019-01-23T09:00:32.044Z,148.97
2019-01-23T09:03:03.751Z,158.07
2019-01-23T09:05:35.469Z,157.47
2019-01-23T09:08:07.159Z,146.30
2019-01-23T09:10:38.878Z,148.53
2019-01-23T09:13:10.564Z,133.40
2019-01-23T09:15:42.268Z,153.80
2019-01-23T09:18:16.916Z,159.60
2019-01-23T09:20:47.763Z,156.23
2019-01-23T09:23:19.451Z,160.60
2019-01-23T09:25:51.668Z,145.73
2019-01-23T09:28:23.646Z,143.07
2019-01-23T09:31:09.208Z,147.40
2019-01-23T09:33:48.460Z,146.73
2019-01-23T09:36:53.882Z,149.90
2019-01-23T09:39:33.409Z,153.17
2019-01-23T09:42:22.102Z,149.33
2019-01-23T09:45:36.471Z,151.53
2019-01-23T09:48:21.982Z,148.53
2019-01-23T09:51:13.164Z,147.63
2019-01-23T09:53:50.114Z,150.63
2019-01-23T09:56:22.361Z,151.03
2019-01-23T09:58:54.299Z,143.40
2019-01-23T10:01:26.018Z,151.47
2019-01-23T10:03:57.839Z,143.97
2019-01-23T10:06:29.529Z,149.90
2019-01-23T10:09:01.257Z,162.77
2019-01-23T10:11:32.946Z,160.47
2019-01-23T10:14:05.440Z,154.30
2019-01-23T10:16:38.796Z,148.57
2019-01-23T10:19:10.526Z,144.27
2019-01-23T10:21:42.337Z,161.93
2019-01-23T10:24:14.393Z,155.90
2019-01-23T10:26:46.483Z,142.33
2019-01-23T10:29:18.525Z,141.30
2019-01-23T10:31:50.223Z,157.80
2019-01-23T10:34:21.912Z,150.37
2019-01-23T10:36:53.613Z,155.40
2019-01-23T10:39:25.299Z,165.03
2019-01-23T10:41:57.018Z,145.93
2019-01-23T10:44:28.714Z,162.60
2019-01-23T10:47:00.443Z,149.57
2019-01-23T10:49:32.132Z,162.77
2019-01-23T10:52:03.848Z,153.37
2019-01-23T10:54:35.543Z,152.77
2019-01-23T10:57:07.523Z,156.30
2019-01-23T10:59:39.216Z,155.03
2019-01-23T11:02:10.919Z,160.77
2019-01-23T11:04:42.621Z,157.27
2019-01-23T11:07:15.387Z,170.60
2019-01-23T11:09:47.103Z,157.83
2019-01-23T11:12:18.876Z,179.83
2019-01-23T11:14:50.569Z,156.37
2019-01-23T11:17:22.283Z,173.77
2019-01-23T11:19:53.969Z,170.73
2019-01-23T11:22:25.673Z,164.80
2019-01-23T11:24:57.383Z,157.60
2019-01-23T11:27:29.080Z,156.50
2019-01-23T11:30:00.787Z,175.90
2019-01-23T11:32:32.746Z,161.37
2019-01-23T11:35:06.609Z,172.33
2019-01-23T11:37:38.289Z,156.23
2019-01-23T11:40:23.227Z,182.17
2019-01-23T11:42:54.912Z,173.07
2019-01-23T11:45:26.682Z,165.83
2019-01-23T11:47:58.382Z,172.87
2019-01-23T11:50:30.065Z,157.17
2019-01-23T11:53:02.031Z,164.50
2019-01-23T11:55:33.715Z,172.70
2019-01-23T11:58:05.641Z,173.77
2019-01-23T12:00:37.315Z,176.40
2019-01-23T12:03:09.028Z,166.20
2019-01-23T12:05:40.709Z,177.27
2019-01-23T12:08:12.401Z,169.80
2019-01-23T12:10:44.134Z,144.93
2019-01-23T12:13:15.849Z,171.80
2019-01-23T12:15:47.583Z,164.10
2019-01-23T12:18:19.277Z,155.20
2019-01-23T12:20:50.977Z,159.67
2019-01-23T12:23:22.747Z,154.03
2019-01-23T12:25:55.369Z,155.60
2019-01-23T12:28:27.056Z,152.70
2019-01-23T12:30:59.186Z,164.30
2019-01-23T12:33:30.876Z,168.13
2019-01-23T12:36:02.575Z,187.93
2019-01-23T12:38:34.617Z,177.37
2019-01-23T12:41:06.403Z,174.27
2019-01-23T12:43:38.127Z,170.67
2019-01-23T12:46:09.880Z,171.00
2019-01-23T12:48:41.575Z,174.93
2019-01-23T12:51:13.340Z,166.00
2019-01-23T12:53:45.060Z,181.00
2019-01-23T12:56:16.766Z,179.43
2019-01-23T12:58:48.458Z,164.77
2019-01-23T13:01:20.503Z,159.43
2019-01-23T13:03:52.188Z,157.80
2019-01-23T13:06:23.911Z,171.53
2019-01-23T13:08:55.588Z,173.63
2019-01-23T13:11:27.334Z,183.37
2019-01-23T13:13:58.990Z,163.10
2019-01-23T13:16:30.793Z,180.27
2019-01-23T13:19:02.484Z,171.67
2019-01-23T13:21:34.202Z,190.00
2019-01-23T13:24:18.560Z,176.17
2019-01-23T13:26:50.259Z,179.73
2019-01-23T13:29:23.181Z,169.17
2019-01-23T13:31:55.186Z,185.20
2019-01-23T13:34:27.370Z,184.80
2019-01-23T13:37:00.312Z,178.43
2019-01-23T13:39:32.547Z,173.27
2019-01-23T13:42:04.892Z,168.20
2019-01-23T13:44:36.595Z,196.27
2019-01-23T13:47:08.596Z,180.90
2019-01-23T13:49:40.303Z,174.30
2019-01-23T13:52:11.987Z,191.10
2019-01-23T13:54:43.707Z,182.93
2019-01-23T13:57:15.725Z,178.73
2019-01-23T13:59:47.434Z,167.27
2019-01-23T14:02:19.110Z,173.27
2019-01-23T14:04:50.815Z,168.60
2019-01-23T14:07:22.506Z,180.60
2019-01-23T14:09:54.203Z,165.43
2019-01-23T14:12:25.995Z,171.20
2019-01-23T14:14:58.040Z,173.03
2019-01-23T14:17:29.924Z,179.30
2019-01-23T14:20:01.651Z,167.67
2019-01-23T14:22:33.342Z,170.27
2019-01-23T14:25:06.950Z,172.97
2019-01-23T14:27:38.991Z,164.43
2019-01-23T14:30:36.152Z,163.40
2019-01-23T14:33:07.908Z,158.93
2019-01-23T14:35:40.547Z,168.10
2019-01-23T14:38:12.826Z,166.47
2019-01-23T14:40:44.593Z,165.07
2019-01-23T14:43:16.684Z,177.87
2019-01-23T14:45:48.369Z,172.13
2019-01-23T14:48:20.410Z,168.27
2019-01-23T14:50:52.115Z,164.93
2019-01-23T14:53:23.814Z,178.83
2019-01-23T14:55:55.614Z,174.27
2019-01-23T14:58:27.307Z,164.57
2019-01-23T15:00:59.081Z,164.97
2019-01-23T15:03:30.772Z,163.80
2019-01-23T15:06:02.483Z,151.63
2019-01-23T15:08:34.478Z,177.37
2019-01-23T15:11:06.178Z,167.23
2019-01-23T15:13:37.895Z,155.93
2019-01-23T15:16:09.653Z,143.07
2019-01-23T15:18:41.706Z,149.60
2019-01-23T15:21:13.679Z,144.07
2019-01-23T15:23:45.468Z,142.97
2019-01-23T15:26:17.705Z,140.43
2019-01-23T15:28:49.614Z,143.73
2019-01-23T15:31:21.311Z,128.40
2019-01-23T15:33:53.082Z,139.73
2019-01-23T15:36:24.789Z,126.60
2019-01-23T15:38:56.728Z,137.50
2019-01-23T15:41:28.448Z,127.37
2019-01-23T15:44:00.250Z,134.63
2019-01-23T15:46:31.967Z,139.10
2019-01-23T15:49:03.678Z,138.53
2019-01-23T15:51:35.383Z,137.13
2019-01-23T15:54:07.362Z,139.70
2019-01-23T15:56:39.227Z,133.80
2019-01-23T15:59:10.939Z,131.03
2019-01-23T16:01:42.649Z,140.63
2019-01-23T16:04:14.383Z,133.32
2019-01-23T16:06:46.584Z,135.73
2019-01-23T16:09:18.497Z,147.43
2019-01-23T16:11:50.291Z,133.50
2019-01-23T16:14:22.011Z,143.57
2019-01-23T16:16:53.692Z,136.70
2019-01-23T16:19:25.403Z,145.23
2019-01-23T16:21:57.126Z,145.87
2019-01-23T16:24:29.395Z,140.67
2019-01-23T16:27:01.097Z,135.47
2019-01-23T16:29:32.801Z,138.20
2019-01-23T16:32:04.499Z,141.63
2019-01-23T16:34:36.197Z,152.33
2019-01-23T16:37:08.287Z,168.80
2019-01-23T16:39:40.016Z,148.33
2019-01-23T16:42:12.110Z,149.00
2019-01-23T16:44:43.838Z,165.20
2019-01-23T16:47:15.525Z,163.23
2019-01-23T16:49:47.238Z,153.10
2019-01-23T16:52:19.245Z,165.93
2019-01-23T16:54:50.960Z,170.47
2019-01-23T16:57:22.683Z,166.17
2019-01-23T16:59:54.346Z,157.03
2019-01-23T17:02:26.036Z,167.40
2019-01-23T17:04:57.747Z,149.93
2019-01-23T17:07:29.446Z,158.47
2019-01-23T17:10:01.777Z,154.43
2019-01-23T17:12:33.507Z,124.17
2019-01-23T17:15:07.569Z,126.87
2019-01-23T17:17:39.355Z,121.83
2019-01-23T17:20:16.194Z,118.73
2019-01-23T17:22:47.967Z,111.13
2019-01-23T17:25:19.669Z,100.50
2019-01-23T17:27:51.672Z,112.43
2019-01-23T17:30:25.004Z,102.37
2019-01-23T17:32:56.772Z,101.63
2019-01-23T17:35:28.493Z,103.87
2019-01-23T17:38:00.189Z,107.23
2019-01-23T17:40:31.889Z,104.03
2019-01-23T17:43:03.594Z,111.67
2019-01-23T17:45:40.052Z,100.07
2019-01-23T17:48:12.558Z,106.50
2019-01-23T17:50:44.264Z,110.17
2019-01-23T17:53:16.416Z,111.27
2019-01-23T17:55:48.126Z,116.73
2019-01-23T17:58:19.826Z,103.23
2019-01-23T18:00:53.176Z,96.33
2019-01-23T18:03:37.615Z,102.17
2019-01-23T18:06:10.327Z,110.53
2019-01-23T18:08:42.060Z,118.67
2019-01-23T18:11:13.736Z,101.50
2019-01-23T18:13:45.757Z,101.83
2019-01-23T18:16:17.451Z,100.27
2019-01-23T18:18:49.155Z,100.50
2019-01-23T18:21:21.111Z,103.23
2019-01-23T18:23:52.821Z,91.60
2019-01-23T18:26:24.507Z,92.27
2019-01-23T18:28:56.202Z,97.00
2019-01-23T18:31:30.888Z,97.63
2019-01-23T18:34:22.019Z,98.97
2019-01-23T18:37:15.117Z,96.37
2019-01-23T18:40:29.622Z,88.37
2019-01-23T18:43:31.766Z,99.77
2019-01-23T18:46:13.921Z,92.90
2019-01-23T18:49:07.736Z,92.07
2019-01-23T18:51:40.900Z,91.77
2019-01-23T18:54:12.972Z,96.60
2019-01-23T18:56:44.657Z,93.67
2019-01-23T18:59:16.350Z,89.80
2019-01-23T19:01:48.049Z,88.97
2019-01-23T19:04:19.747Z,94.77
2019-01-23T19:06:51.448Z,81.63
2019-01-23T19:09:23.209Z,88.40
2019-01-23T19:11:54.897Z,89.30
2019-01-23T19:14:26.644Z,97.50
2019-01-23T19:16:58.426Z,92.83
2019-01-23T19:19:30.458Z,86.73
2019-01-23T19:22:02.164Z,80.80
2019-01-23T19:24:34.219Z,84.30
2019-01-23T19:27:05.916Z,89.33
2019-01-23T19:29:37.613Z,77.67
2019-01-23T19:32:09.294Z,90.87
2019-01-23T19:34:41.019Z,82.40
2019-01-23T19:37:12.693Z,86.97
2019-01-23T19:39:44.411Z,86.50
2019-01-23T19:42:16.381Z,91.63
2019-01-23T19:44:49.254Z,95.07
2019-01-23T19:47:20.956Z,92.10
2019-01-23T19:49:52.727Z,85.30
2019-01-23T19:52:24.429Z,82.13
2019-01-23T19:54:56.501Z,76.77
2019-01-23T19:57:28.381Z,79.17
2019-01-23T20:00:00.253Z,76.50
2019-01-23T20:02:31.923Z,77.17
2019-01-23T20:05:05.896Z,72.97
2019-01-23T20:07:37.650Z,67.57
2019-01-23T20:10:14.512Z,73.40
2019-01-23T20:12:47.180Z,79.10
2019-01-23T20:15:21.064Z,82.40
2019-01-23T20:17:55.766Z,88.17
2019-01-23T20:20:27.464Z,80.00
2019-01-23T20:22:59.146Z,78.43
2019-01-23T20:25:31.294Z,77.57
2019-01-23T20:28:03.374Z,76.90
2019-01-23T20:30:36.949Z,77.03
2019-01-23T20:33:08.650Z,81.43
2019-01-23T20:35:40.418Z,90.47
2019-01-23T20:38:12.117Z,69.47
2019-01-23T20:40:43.822Z,75.83
2019-01-23T20:43:15.515Z,71.63
2019-01-23T20:45:47.275Z,67.60
2019-01-23T20:48:18.998Z,73.50
2019-01-23T20:50:50.972Z,69.47
2019-01-23T20:53:22.700Z,64.70
2019-01-23T20:55:54.371Z,69.97
2019-01-23T20:58:26.378Z,66.20
2019-01-23T21:00:58.082Z,65.80
2019-01-23T21:03:34.872Z,65.00
2019-01-23T21:06:03.254Z,58.83
2019-01-23T21:08:35.232Z,60.63
2019-01-23T21:11:06.926Z,64.00
2019-01-23T21:13:38.628Z,69.03
2019-01-23T21:16:10.320Z,64.33
2019-01-23T21:18:42.287Z,59.47
2019-01-23T21:21:13.965Z,56.30
2019-01-23T21:23:45.744Z,66.33
2019-01-23T21:26:17.433Z,66.53
2019-01-23T21:28:49.123Z,64.73
2019-01-23T21:31:20.833Z,61.50
2019-01-23T21:33:52.535Z,63.30
2019-01-23T21:36:24.283Z,70.83
2019-01-23T21:38:56.000Z,69.03
2019-01-23T21:41:27.751Z,68.50
2019-01-23T21:43:59.870Z,58.17
2019-01-23T21:46:31.562Z,60.13
2019-01-23T21:49:03.307Z,58.30
2019-01-23T21:51:35.109Z,54.13
2019-01-23T21:54:06.802Z,51.33
2019-01-23T21:56:38.519Z,55.20
2019-01-23T21:59:10.195Z,52.30
2019-01-23T22:01:42.239Z,59.97
2019-01-23T22:04:13.922Z,53.77
2019-01-23T22:06:45.626Z,59.70
2019-01-23T22:09:17.306Z,55.63
2019-01-23T22:11:49.305Z,52.70
2019-01-23T22:14:20.987Z,56.43
2019-01-23T22:16:52.682Z,50.33
2019-01-23T22:19:24.367Z,54.80
2019-01-23T22:21:56.064Z,56.13
2019-01-23T22:24:27.753Z,57.10
2019-01-23T22:26:59.513Z,57.53
2019-01-23T22:29:32.827Z,56.17
2019-01-23T22:32:04.542Z,59.13
2019-01-23T22:34:36.228Z,62.93
2019-01-23T22:37:07.965Z,55.90
2019-01-23T22:39:39.712Z,49.87
2019-01-23T22:42:11.412Z,49.30
2019-01-23T22:44:43.930Z,49.37
2019-01-23T22:47:16.010Z,48.60
2019-01-23T22:49:48.051Z,54.50
2019-01-23T22:52:19.754Z,50.80
2019-01-23T22:54:51.445Z,47.97
2019-01-23T22:57:23.425Z,48.50
2019-01-23T22:59:55.193Z,48.73
2019-01-23T23:02:27.014Z,50.20
2019-01-23T23:04:58.726Z,49.83
2019-01-23T23:07:30.589Z,58.30
2019-01-23T23:10:02.296Z,54.07
2019-01-23T23:12:33.981Z,61.27
2019-01-23T23:15:09.696Z,56.13
2019-01-23T23:17:41.378Z,48.47
2019-01-23T23:20:14.278Z,50.13
2019-01-23T23:22:45.971Z,55.57
2019-01-23T23:25:17.680Z,47.37
2019-01-23T23:27:49.380Z,54.67
2019-01-23T23:30:24.440Z,56.40
2019-01-23T23:32:56.128Z,48.30
2019-01-23T23:35:27.821Z,50.07
2019-01-23T23:37:59.524Z,53.13
2019-01-23T23:40:31.535Z,50.87
2019-01-23T23:43:03.241Z,53.17
2019-01-23T23:45:35.254Z,53.40
2019-01-23T23:48:07.015Z,51.53
2019-01-23T23:50:39.076Z,54.43
2019-01-23T23:53:10.869Z,54.60
2019-01-23T23:55:42.548Z,46.27
2019-01-23T23:58:14.316Z,56.57
